地図

経路データ

SID SEASON NUMBER BASIN SUBBASIN NAME ISO_TIME NATURE LAT LON WMO_WIND WMO_PRES WMO_AGENCY TRACK_TYPE DIST2LAND LANDFALL IFLAG USA_AGENCY USA_ATCF_ID USA_LAT USA_LON USA_RECORD USA_STATUS USA_WIND USA_PRES USA_SSHS USA_R34_NE USA_R34_SE USA_R34_SW USA_R34_NW USA_R50_NE USA_R50_SE USA_R50_SW USA_R50_NW USA_R64_NE USA_R64_SE USA_R64_SW USA_R64_NW USA_POCI USA_ROCI USA_RMW USA_EYE TOKYO_LAT TOKYO_LON TOKYO_GRADE TOKYO_WIND TOKYO_PRES TOKYO_R50_DIR TOKYO_R50_LONG TOKYO_R50_SHORT TOKYO_R30_DIR TOKYO_R30_LONG TOKYO_R30_SHORT TOKYO_LAND CMA_LAT CMA_LON CMA_CAT CMA_WIND CMA_PRES HKO_LAT HKO_LON HKO_CAT HKO_WIND HKO_PRES NEWDELHI_LAT NEWDELHI_LON NEWDELHI_GRADE NEWDELHI_WIND NEWDELHI_PRES NEWDELHI_CI NEWDELHI_DP NEWDELHI_POCI REUNION_LAT REUNION_LON REUNION_TYPE REUNION_WIND REUNION_PRES REUNION_TNUM REUNION_CI REUNION_RMW REUNION_R34_NE REUNION_R34_SE REUNION_R34_SW REUNION_R34_NW REUNION_R50_NE REUNION_R50_SE REUNION_R50_SW REUNION_R50_NW REUNION_R64_NE REUNION_R64_SE REUNION_R64_SW REUNION_R64_NW BOM_LAT BOM_LON BOM_TYPE BOM_WIND BOM_PRES BOM_TNUM BOM_CI BOM_RMW BOM_R34_NE BOM_R34_SE BOM_R34_SW BOM_R34_NW BOM_R50_NE BOM_R50_SE BOM_R50_SW BOM_R50_NW BOM_R64_NE BOM_R64_SE BOM_R64_SW BOM_R64_NW BOM_ROCI BOM_POCI BOM_EYE BOM_POS_METHOD BOM_PRES_METHOD NADI_LAT NADI_LON NADI_CAT NADI_WIND NADI_PRES WELLINGTON_LAT WELLINGTON_LON WELLINGTON_WIND WELLINGTON_PRES DS824_LAT DS824_LON DS824_STAGE DS824_WIND DS824_PRES TD9636_LAT TD9636_LON TD9636_STAGE TD9636_WIND TD9636_PRES TD9635_LAT TD9635_LON TD9635_WIND TD9635_PRES TD9635_ROCI NEUMANN_LAT NEUMANN_LON NEUMANN_CLASS NEUMANN_WIND NEUMANN_PRES MLC_LAT MLC_LON MLC_CLASS MLC_WIND MLC_PRES USA_GUST BOM_GUST BOM_GUST_PER REUNION_GUST REUNION_GUST_PER USA_SEAHGT USA_SEARAD_NE USA_SEARAD_SE USA_SEARAD_SW USA_SEARAD_NW STORM_SPEED STORM_DIR
1975070S11134 1975 27 SI WA WILMA 1975-03-10 12:00:00 TS -10.5000 133.800 main 140 140 O________O____ jtwc_sh SH251975 -10.5000 133.800 15 -1 -10.5000 133.800 TC 15 4 90
1975070S11134 1975 27 SI WA WILMA 1975-03-10 15:00:00 TS -10.5001 134.013 main 147 147 P________P____ SH251975 -10.5001 134.013 15 -1 -10.5001 134.013 TC 15 4 90
1975070S11134 1975 27 SI WA WILMA 1975-03-10 18:00:00 TS -10.5000 134.200 30 998 bom main 152 147 O_____O__O____ jtwc_sh SH251975 -10.5000 134.100 15 -1 -10.5000 134.500 20 30 998 2.50000 -10.5000 134.100 TC 15 45 45 0 270
1975070S11134 1975 27 SI WA WILMA 1975-03-10 21:00:00 TS -10.5000 133.977 30 995 bom main 147 126 P_____O__PO___ SH251975 -10.5000 133.975 15 -1 -10.5000 134.000 20 30 995 2.50000 -10.5000 133.975 TC 15 -10.5000 134.000 1 15 45 45 6 270
1975070S11134 1975 27 SI WA WILMA 1975-03-11 00:00:00 TS -10.4997 133.619 40 995 bom main 126 109 O_____O__OP___ jtwc_sh SH251975 -10.5000 133.700 15 -1 -10.5000 133.500 30 40 995 3.00000 -10.5000 133.700 TC 15 -10.4973 133.648 1 16 55 55 7 270
1975070S11134 1975 27 SI WA WILMA 1975-03-11 03:00:00 TS -10.4993 133.307 40 995 bom main 109 101 P_____O__PP___ SH251975 -10.5001 133.357 17 -1 -10.5000 133.300 30 40 995 3.00000 -10.5001 133.357 TC 17 -10.4954 133.308 1 17 55 55 6 270
1975070S11134 1975 27 SI WA WILMA 1975-03-11 06:00:00 TS -10.4992 133.007 40 995 bom main 101 95 O_____O__OP_O_ jtwc_sh SH251975 -10.5000 133.000 20 -1 -10.5000 133.000 30 40 995 3.00000 -10.5000 133.000 TC 20 -10.4959 132.988 1 18 -10.5000 133.200 TC 45 992 55 55 6 270
1975070S11134 1975 27 SI WA WILMA 1975-03-11 09:00:00 TS -10.4963 132.745 40 995 bom main 89 81 P_____O__PO_P_ SH251975 -10.4924 132.735 20 -1 -10.5000 132.700 30 40 995 3.00000 -10.4924 132.735 TC 20 -10.5000 132.700 1 20 -10.4900 132.950 TC 45 991 55 55 5 270
1975070S11134 1975 27 SI WA WILMA 1975-03-11 12:00:00 TS -10.5017 132.517 45 990 bom main 81 78 O_____O__OP_O_ jtwc_sh SH251975 -10.5000 132.500 20 -1 -10.5000 132.500 30 45 990 3.00000 -10.5000 132.500 TC 20 -10.5095 132.450 1 18 -10.5000 132.700 TC 45 990 64 64 5 266
1975070S11134 1975 27 SI WA WILMA 1975-03-11 15:00:00 TS -10.5258 132.285 50 990 bom main 78 67 P_____O__PP_P_ SH251975 -10.5500 132.243 17 -1 -10.5000 132.300 30 50 990 3.50000 -10.5500 132.243 TC 17 -10.5273 132.227 1 17 -10.5425 132.450 TC 47 988 69 69 5 263
1975070S11134 1975 27 SI WA WILMA 1975-03-11 18:00:00 TS -10.5594 132.036 55 985 bom main 67 67 O_____O__OP_O_ jtwc_sh SH251975 -10.6000 132.000 15 -1 -10.5000 132.000 30 55 985 4.00000 -10.6000 132.000 TC 15 -10.5564 132.016 1 16 -10.6000 132.200 TC 50 987 75 75 5 260
1975070S11134 1975 27 SI WA WILMA 1975-03-11 21:00:00 TS -10.6046 131.817 55 985 bom main 70 70 P_____O__PO_P_ SH251975 -10.5925 131.800 15 -1 -10.6000 131.800 30 55 985 4.00000 -10.5925 131.800 TC 15 -10.6000 131.800 1 15 -10.6500 131.950 TC 52 986 75 75 5 258
1975070S11134 1975 27 SI WA WILMA 1975-03-12 00:00:00 TS -10.6581 131.577 60 985 bom main 71 68 O_____O__OP_O_ jtwc_sh SH251975 -10.6000 131.600 15 -1 -10.7000 131.500 30 60 985 4.00000 -10.6000 131.600 TC 15 -10.6484 131.561 1 16 -10.7000 131.700 TC 55 985 84 84 5 255
1975070S11134 1975 27 SI WA WILMA 1975-03-12 03:00:00 TS -10.7291 131.341 60 985 bom main 67 56 P_____O__PP_P_ SH251975 -10.6850 131.365 17 -1 -10.8000 131.300 30 60 985 4.00000 -10.6850 131.365 TC 17 -10.7124 131.315 1 17 -10.7425 131.450 TC 52 986 84 84 5 254
1975070S11134 1975 27 SI WA WILMA 1975-03-12 06:00:00 TS -10.7992 131.077 60 985 bom main 56 49 O_____O__OP_O_ jtwc_sh SH251975 -10.8000 131.100 20 -1 -10.8000 131.000 30 60 985 4.00000 -10.8000 131.100 TC 20 -10.7952 131.061 1 18 -10.8000 131.200 TC 50 987 84 84 5 253
1975070S11134 1975 27 SI WA WILMA 1975-03-12 09:00:00 TS -10.8913 130.815 60 985 bom main 49 33 P_____O__PO_P_ SH251975 -10.8925 130.800 20 -1 -10.9000 130.800 30 60 985 4.00000 -10.8925 130.800 TC 20 -10.9000 130.800 1 20 -10.8775 130.942 TC 50 988 84 84 6 249
1975070S11134 1975 27 SI WA WILMA 1975-03-12 12:00:00 TS -11.0027 130.536 55 990 bom main 33 24 O_____O__OP_O_ jtwc_sh SH251975 -11.0000 130.500 20 -1 -11.0000 130.500 30 55 990 4.00000 -11.0000 130.500 TC 20 -11.0163 130.516 1 20 -11.0000 130.700 TC 50 989 75 75 6 244
1975070S11134 1975 27 SI WA WILMA 1975-03-12 15:00:00 TS -11.1396 130.292 55 990 bom main 31 15 P_____O__PP_P_ SH251975 -11.1350 130.242 20 -1 -11.1000 130.300 30 55 990 4.00000 -11.1350 130.242 TC 20 -11.1551 130.228 1 20 -11.1850 130.500 TC 47 989 75 75 6 237
1975070S11134 1975 27 SI WA WILMA 1975-03-12 18:00:00 TS -11.3194 130.042 50 990 bom main 24 15 O_____O__OP_O_ jtwc_sh SH251975 -11.3000 130.000 20 -1 -11.3000 130.000 30 50 990 3.50000 -11.3000 130.000 TC 20 -11.3163 129.950 1 20 -11.4000 130.300 TC 45 990 69 69 6 233
1975070S11134 1975 27 SI WA WILMA 1975-03-12 21:00:00 TS -11.5188 129.785 50 990 bom main 32 32 P_____O__PO_P_ SH251975 -11.4850 129.735 20 -1 -11.5000 129.700 30 50 990 3.50000 -11.4850 129.735 TC 20 -11.5000 129.700 1 20 -11.6000 130.050 TC 45 990 69 69 6 226
1975070S11134 1975 27 SI WA WILMA 1975-03-13 00:00:00 TS -11.7499 129.582 50 990 bom main 55 54 O_____O__OP_O_ jtwc_sh SH251975 -11.7000 129.500 20 -1 -11.8000 129.600 30 50 990 3.50000 -11.7000 129.500 TC 20 -11.6993 129.492 1 20 -11.8000 129.800 TC 45 990 69 69 6 218
1975070S11134 1975 27 SI WA WILMA 1975-03-13 03:00:00 TS -11.9879 129.415 50 990 bom main 79 79 P_____O__PP_P_ SH251975 -11.9500 129.342 20 -1 -12.1000 129.500 30 50 990 3.50000 -11.9500 129.342 TC 20 -11.9199 129.312 1 20 -12.0000 129.592 TC 45 990 69 69 6 218
1975070S11134 1975 27 SI WA WILMA 1975-03-13 06:00:00 TS -12.1926 129.225 50 990 bom main 107 107 O_____O__OP_O_ jtwc_sh SH251975 -12.2000 129.200 20 -1 -12.2000 129.200 30 50 990 3.50000 -12.2000 129.200 TC 20 -12.1555 129.151 1 20 -12.2000 129.400 TC 45 990 69 69 6 223
1975070S11134 1975 27 SI WA WILMA 1975-03-13 09:00:00 TS -12.3950 129.030 50 990 bom main 137 131 P_____O__PO_P_ SH251975 -12.4000 129.000 22 -1 -12.4000 129.000 30 50 990 3.50000 -12.4000 129.000 TC 22 -12.4000 129.000 1 20 -12.3925 129.185 TC 45 990 69 69 6 223
1975070S11134 1975 27 SI WA WILMA 1975-03-13 12:00:00 TS -12.6044 128.838 50 990 bom main 147 136 O_____O__OP_O_ jtwc_sh SH251975 -12.6000 128.800 25 -1 -12.6000 128.800 30 50 990 3.50000 -12.6000 128.800 TC 25 -12.6266 128.827 1 26 -12.6000 129.000 TC 45 990 69 69 6 215
1975070S11134 1975 27 SI WA WILMA 1975-03-13 15:00:00 TS -12.8875 128.680 50 990 bom main 136 131 P_____O__PP_P_ SH251975 -12.8350 128.635 32 -1 -13.0000 128.600 30 50 990 3.50000 -12.8350 128.635 TC 32 -12.8625 128.663 1 32 -12.8424 128.907 TC 47 988 69 69 6 206
1975070S11134 1975 27 SI WA WILMA 1975-03-13 18:00:00 TS -13.1695 128.553 55 985 bom main 134 117 O_____O__OP_O_ jtwc_sh SH251975 -13.1000 128.500 40 0 -13.3000 128.500 30 55 985 4.00000 -13.1000 128.500 TC 40 -13.1172 128.517 1 38 -13.1000 128.800 TC 50 987 75 75 6 208
1975070S11134 1975 27 SI WA WILMA 1975-03-13 21:00:00 TS -13.3971 128.408 55 985 bom main 117 85 P_____O__PO_P_ SH251975 -13.3850 128.385 45 0 -13.4000 128.400 30 55 985 4.00000 -13.3850 128.385 TC 45 -13.4000 128.400 2 45 -13.3276 128.543 TC 52 986 75 75 6 208
1975070S11134 1975 27 SI WA WILMA 1975-03-14 00:00:00 TS -13.6849 128.267 60 985 bom main 85 58 O_____O__OP_O_ jtwc_sh SH251975 -13.7000 128.300 50 0 -13.7000 128.200 30 60 985 4.00000 -13.7000 128.300 TC 50 -13.7172 128.317 2 50 -13.6000 128.300 TC 55 985 84 84 7 198
1975070S11134 1975 27 SI WA WILMA 1975-03-14 03:00:00 TS -14.0441 128.188 60 985 bom main 58 22 P_____O__PP_P_ SH251975 -14.0425 128.243 55 0 -14.0000 128.100 30 60 985 4.00000 -14.0425 128.243 TC 55 -14.0625 128.262 2 55 -13.9850 128.220 TC 57 983 84 84 8 188
1975070S11134 1975 27 SI WA WILMA 1975-03-14 06:00:00 TS -14.5038 128.154 60 980 bom main 22 0 O_____O__OP_O_ jtwc_sh SH251975 -14.4000 128.200 60 0 -14.6000 128.100 30 60 980 4.00000 -14.4000 128.200 TC 60 -14.4265 128.227 2 60 -14.4000 128.200 TC 60 981 84 84 8 188
1975070S11134 1975 27 SI WA WILMA 1975-03-14 09:00:00 TS -14.8244 128.070 60 980 bom main 0 0 ______O___O_P_ SH251975 -1 -14.8000 128.000 30 60 980 4.00000 TC -14.8000 128.200 4 65 -14.7675 128.160 TC 57 983 84 84 7 191
1975070S11134 1975 27 SI WA WILMA 1975-03-14 12:00:00 TS -15.1833 128.017 50 980 bom main 0 0 ______O_____O_ -1 -15.2000 128.000 30 50 980 4 -15.1000 128.100 TC 55 985 69 69 7 184
1975070S11134 1975 27 SI WA WILMA 1975-03-14 15:00:00 NR -15.5557 128.031 main 0 0 ______P_______ -1 -15.5557 128.031 30 43 983 4 TC 7 173
1975070S11134 1975 27 SI WA WILMA 1975-03-14 18:00:00 NR -15.8761 128.094 main 0 0 ______P_______ -1 -15.8761 128.094 30 37 987 4 6 167
1975070S11134 1975 27 SI WA WILMA 1975-03-14 21:00:00 NR -16.1834 128.186 main 0 0 ______P_______ -1 -16.1834 128.186 30 31 990 7 162
1975070S11134 1975 27 SI WA WILMA 1975-03-15 00:00:00 NR -16.5000 128.300 25 994 bom main 0 0 ______O_______ -1 -16.5000 128.300 80 25 994 45 45 7 160
1975070S11134 1975 27 SI WA WILMA 1975-03-15 03:00:00 NR -16.8438 128.433 main 0 0 ______P_______ -1 -16.8438 128.433 80 8 159
1975070S11134 1975 27 SI WA WILMA 1975-03-15 06:00:00 NR -17.2151 128.582 main 0 0 ______P_______ -1 -17.2151 128.582 80 8 159
1975070S11134 1975 27 SI WA WILMA 1975-03-15 09:00:00 NR -17.6101 128.746 main 0 0 ______P_______ -1 -17.6101 128.746 80 9 158
1975070S11134 1975 27 SI WA WILMA 1975-03-15 12:00:00 NR -18.0248 128.921 main 0 0 ______P_______ -1 -18.0248 128.921 80 9 158
1975070S11134 1975 27 SI WA WILMA 1975-03-15 15:00:00 NR -18.4551 129.106 main 0 0 ______P_______ -1 -18.4551 129.106 80 9 158
1975070S11134 1975 27 SI WA WILMA 1975-03-15 18:00:00 NR -18.8971 129.299 main 0 0 ______P_______ -1 -18.8971 129.299 80 10 157
1975070S11134 1975 27 SI WA WILMA 1975-03-15 21:00:00 NR -19.3468 129.498 main 0 0 ______P_______ -1 -19.3468 129.498 80 10 157
1975070S11134 1975 27 SI WA WILMA 1975-03-16 00:00:00 NR -19.8000 129.700 15 1000 bom main 0 ______O_______ -1 -19.8000 129.700 80 15 1000 45 45 10 157

IBTrACS Databaseについて

本データベースは、米国NOAAが公開する1842年以降の世界の熱帯低気圧のベストトラックデータアーカイブInternational Best Track Archive for Climate Stewardship (IBTrACS)を、ウェブで閲覧しやすい形式に変換したものです。

最終更新日:2021-10-21